Terminal Aerodrome Forecast
Issued by NWS Sioux Falls, SD

Home | Current Version | Previous Version | Graphics & Text | Print | Product List | Glossary On
Versions: 1 2 3 4 5 6 7 8 9 10 11 12 13 14 15 16 17 18 19 20 21 22 23 24 25 26 27 28 29 30 31 32 33 34 35 36 37 38
000
FTUS43 KFSD 241720
TAFSUX
TAF
KSUX 241720Z 2418/2518 32024G32KT P6SM -SN OVC019
     FM242000 32015G23KT P6SM SCT020
     FM250600 31009KT P6SM BKN200
     FM251000 25005KT P6SM SCT050
     FM251500 19006KT P6SM SCT050=

USA.gov is the U.S. government's official web portal to all federal, state and local government web resources and services.